createdAt,value
2022-11-14T00:00:59.224Z,99276.66
2022-11-14T00:03:25.709Z,99273.81
2022-11-14T00:05:52.089Z,99272.66
2022-11-14T00:08:25.076Z,99271.81
2022-11-14T00:10:52.039Z,99266.63
2022-11-14T00:13:19.910Z,99268.06
2022-11-14T00:15:50.262Z,99262.53
2022-11-14T00:18:17.496Z,99270.03
2022-11-14T00:20:43.955Z,99259.72
2022-11-14T00:23:10.354Z,99260.66
2022-11-14T00:25:36.923Z,99251.22
2022-11-14T00:28:03.306Z,99251.50
2022-11-14T00:30:29.859Z,99251.34
2022-11-14T00:32:56.233Z,99245.72
2022-11-14T00:35:23.013Z,99245.94
2022-11-14T00:37:50.025Z,99243.38
2022-11-14T00:40:16.664Z,99236.56
2022-11-14T00:42:43.192Z,99233.72
2022-11-14T00:45:10.460Z,99237.31
2022-11-14T00:47:37.169Z,99232.88
2022-11-14T00:50:04.690Z,99233.81
2022-11-14T00:52:31.076Z,99226.16
2022-11-14T00:54:57.641Z,99229.66
2022-11-14T00:57:24.178Z,99230.50
2022-11-14T00:59:50.715Z,99223.03
2022-11-14T01:02:17.078Z,99220.47
2022-11-14T01:04:43.570Z,99214.34
2022-11-14T01:07:09.997Z,99211.88
2022-11-14T01:09:36.619Z,99205.81
2022-11-14T01:12:03.152Z,99206.06
2022-11-14T01:14:29.559Z,99197.75
2022-11-14T01:16:56.346Z,99196.03
2022-11-14T01:19:22.734Z,99193.69
2022-11-14T01:21:49.410Z,99201.00
2022-11-14T01:24:15.784Z,99195.38
2022-11-14T01:26:42.236Z,99187.75
2022-11-14T01:29:08.636Z,99196.91
2022-11-14T01:31:35.175Z,99192.72
2022-11-14T01:34:01.594Z,99196.22
2022-11-14T01:36:28.198Z,99189.09
2022-11-14T01:38:55.014Z,99187.34
2022-11-14T01:41:22.873Z,99185.44
2022-11-14T01:43:49.804Z,99187.25
2022-11-14T01:46:19.283Z,99175.47
2022-11-14T01:48:51.578Z,99173.56
2022-11-14T01:51:27.070Z,99180.69
2022-11-14T01:53:56.379Z,99171.97
2022-11-14T01:56:32.190Z,99171.75
2022-11-14T01:59:04.701Z,99168.25
2022-11-14T02:01:34.116Z,99173.94
2022-11-14T02:04:05.489Z,99166.44
2022-11-14T02:06:33.259Z,99156.09
2022-11-14T02:09:05.002Z,99159.59
2022-11-14T02:11:35.095Z,99149.09
2022-11-14T02:14:01.937Z,99151.06
2022-11-14T02:16:28.996Z,99145.56
2022-11-14T02:18:55.621Z,99144.28
2022-11-14T02:21:21.996Z,99140.81
2022-11-14T02:23:48.617Z,99146.31
2022-11-14T02:26:19.876Z,99147.28
2022-11-14T02:28:47.343Z,99156.84
2022-11-14T02:31:14.634Z,99155.56
2022-11-14T02:33:42.070Z,99153.97
2022-11-14T02:36:09.396Z,99151.78
2022-11-14T02:38:36.468Z,99143.81
2022-11-14T02:41:03.313Z,99143.28
2022-11-14T02:43:29.751Z,99145.00
2022-11-14T02:45:57.473Z,99140.72
2022-11-14T02:48:25.655Z,99135.13
2022-11-14T02:50:52.071Z,99129.28
2022-11-14T02:53:18.604Z,99127.91
2022-11-14T02:55:44.986Z,99119.06
2022-11-14T02:58:11.465Z,99127.91
2022-11-14T03:00:53.328Z,99128.00
2022-11-14T03:03:24.299Z,99118.97
2022-11-14T03:05:53.311Z,99115.22
2022-11-14T03:08:19.982Z,99127.00
2022-11-14T03:10:46.387Z,99131.34
2022-11-14T03:13:12.786Z,99130.28
2022-11-14T03:15:39.400Z,99134.34
2022-11-14T03:18:05.895Z,99131.13
2022-11-14T03:20:32.318Z,99136.00
2022-11-14T03:22:58.742Z,99142.66
2022-11-14T03:25:25.154Z,99136.91
2022-11-14T03:27:51.781Z,99138.06
2022-11-14T03:30:18.313Z,99141.00
2022-11-14T03:32:44.905Z,99139.25
2022-11-14T03:35:11.674Z,99125.47
2022-11-14T03:37:38.584Z,99131.56
2022-11-14T03:40:05.792Z,99126.44
2022-11-14T03:42:36.189Z,99148.19
2022-11-14T03:45:02.661Z,99131.97
2022-11-14T03:47:29.438Z,99132.06
2022-11-14T03:49:55.878Z,99129.69
2022-11-14T03:52:22.400Z,99133.31
2022-11-14T03:54:48.927Z,99131.78
2022-11-14T03:57:15.447Z,99128.19
2022-11-14T03:59:41.837Z,99133.59
2022-11-14T04:02:08.925Z,99126.50
2022-11-14T04:04:35.756Z,99115.25
2022-11-14T04:07:02.420Z,99115.63
2022-11-14T04:09:29.486Z,99117.31
2022-11-14T04:11:56.043Z,99114.97
2022-11-14T04:14:22.716Z,99110.31
2022-11-14T04:16:49.095Z,99117.59
2022-11-14T04:19:15.628Z,99107.38
2022-11-14T04:21:41.974Z,99117.78
2022-11-14T04:24:11.169Z,99116.63
2022-11-14T04:26:37.902Z,99109.34
2022-11-14T04:29:06.902Z,99107.38
2022-11-14T04:31:33.338Z,99111.72
2022-11-14T04:33:59.934Z,99106.22
2022-11-14T04:36:26.319Z,99102.94
2022-11-14T04:38:52.786Z,99106.22
2022-11-14T04:41:19.165Z,99105.16
2022-11-14T04:43:50.664Z,99103.50
2022-11-14T04:46:17.409Z,99106.31
2022-11-14T04:48:45.055Z,99105.56
2022-11-14T04:51:11.456Z,99099.91
2022-11-14T04:53:38.035Z,99101.72
2022-11-14T04:56:04.759Z,99096.09
2022-11-14T04:58:31.620Z,99101.63
2022-11-14T05:00:58.450Z,99100.41
2022-11-14T05:03:25.444Z,99088.38
2022-11-14T05:05:51.942Z,99087.81
2022-11-14T05:08:18.520Z,99089.34
2022-11-14T05:10:46.134Z,99097.78
2022-11-14T05:13:12.882Z,99088.31
2022-11-14T05:15:39.493Z,99083.41
2022-11-14T05:18:05.897Z,99088.72
2022-11-14T05:20:32.520Z,99083.91
2022-11-14T05:22:59.172Z,99082.75
2022-11-14T05:25:25.718Z,99081.44
2022-11-14T05:27:52.132Z,99078.88
2022-11-14T05:30:18.851Z,99076.13
2022-11-14T05:32:45.231Z,99074.72
2022-11-14T05:35:11.741Z,99074.72
2022-11-14T05:37:38.309Z,99068.00
2022-11-14T05:40:06.650Z,99076.34
2022-11-14T05:42:33.147Z,99073.97
2022-11-14T05:44:59.916Z,99066.03
2022-11-14T05:47:26.300Z,99068.09
2022-11-14T05:49:52.877Z,99067.81
2022-11-14T05:52:19.289Z,99073.47
2022-11-14T05:54:45.766Z,99066.97
2022-11-14T05:57:12.160Z,99071.09
2022-11-14T05:59:38.747Z,99065.63
2022-11-14T06:02:05.643Z,99074.13
2022-11-14T06:04:32.095Z,99069.31
2022-11-14T06:06:58.727Z,99061.22
2022-11-14T06:09:25.154Z,99060.06
2022-11-14T06:11:51.609Z,99058.47
2022-11-14T06:14:18.103Z,99058.84
2022-11-14T06:16:44.480Z,99054.88
2022-11-14T06:19:10.924Z,99056.00
2022-11-14T06:21:37.332Z,99052.38
2022-11-14T06:24:04.189Z,99054.72
2022-11-14T06:26:31.649Z,99060.06
2022-11-14T06:28:59.924Z,99050.66
2022-11-14T06:31:26.926Z,99044.06
2022-11-14T06:33:53.888Z,99037.78
2022-11-14T06:36:20.509Z,99034.06
2022-11-14T06:38:47.107Z,99026.34
2022-11-14T06:41:13.586Z,99035.38
2022-11-14T06:43:45.678Z,99029.63
2022-11-14T06:46:14.975Z,99024.53
2022-11-14T06:48:43.075Z,99021.00
2022-11-14T06:51:11.656Z,99012.72
2022-11-14T06:53:38.112Z,98999.97
2022-11-14T06:56:08.770Z,98993.00
2022-11-14T06:58:38.978Z,99002.28
2022-11-14T07:01:08.264Z,99012.28
2022-11-14T07:03:34.894Z,99005.41
2022-11-14T07:06:02.292Z,99018.56
2022-11-14T07:08:29.513Z,99023.63
2022-11-14T07:11:11.391Z,99033.47
2022-11-14T07:13:38.573Z,99032.31
2022-11-14T07:16:05.675Z,99031.53
2022-11-14T07:18:33.665Z,99042.13
2022-11-14T07:21:02.829Z,99044.09
2022-11-14T07:23:32.038Z,99035.75
2022-11-14T07:26:09.192Z,99035.09
2022-11-14T07:28:37.780Z,99027.25
2022-11-14T07:31:07.786Z,99031.28
2022-11-14T07:33:34.633Z,99026.09
2022-11-14T07:36:01.757Z,99026.88
2022-11-14T07:38:28.569Z,99025.31
2022-11-14T07:41:03.741Z,99027.00
2022-11-14T07:43:30.350Z,99024.72
2022-11-14T07:46:00.974Z,99026.31
2022-11-14T07:48:29.266Z,99026.00
2022-11-14T07:51:03.826Z,99027.31
2022-11-14T07:53:31.101Z,99014.75
2022-11-14T07:56:03.128Z,99010.75
2022-11-14T07:58:30.200Z,99015.84
2022-11-14T08:01:01.426Z,99012.94
2022-11-14T08:03:28.672Z,99005.94
2022-11-14T08:06:06.838Z,99005.06
2022-11-14T08:08:33.677Z,99005.69
2022-11-14T08:11:00.785Z,99008.50
2022-11-14T08:13:33.227Z,99003.16
2022-11-14T08:16:09.156Z,99007.88
2022-11-14T08:18:38.691Z,99011.13
2022-11-14T08:21:05.873Z,99011.75
2022-11-14T08:23:32.410Z,99015.25
2022-11-14T08:25:59.881Z,99018.16
2022-11-14T08:28:26.287Z,99019.63
2022-11-14T08:30:52.795Z,99004.97
2022-11-14T08:33:19.203Z,99015.88
2022-11-14T08:35:45.584Z,99024.84
2022-11-14T08:38:12.099Z,99016.59
2022-11-14T08:40:39.873Z,99030.38
2022-11-14T08:43:06.394Z,99029.78
2022-11-14T08:45:32.865Z,99032.22
2022-11-14T08:47:59.243Z,99032.22
2022-11-14T08:50:25.674Z,99044.81
2022-11-14T08:52:52.463Z,99029.31
2022-11-14T08:55:19.783Z,99028.31
2022-11-14T08:57:49.691Z,99031.72
2022-11-14T09:00:17.341Z,99013.69
2022-11-14T09:02:43.778Z,99012.81
2022-11-14T09:05:11.018Z,99019.84
2022-11-14T09:07:37.599Z,99017.91
2022-11-14T09:10:05.124Z,99015.72
2022-11-14T09:12:31.751Z,99008.69
2022-11-14T09:14:58.262Z,99008.00
2022-11-14T09:17:24.844Z,99001.06
2022-11-14T09:19:51.278Z,99004.94
2022-11-14T09:22:17.750Z,98999.22
2022-11-14T09:24:47.337Z,98994.97
2022-11-14T09:27:14.091Z,98995.31
2022-11-14T09:29:40.941Z,99003.31
2022-11-14T09:32:07.540Z,98996.34
2022-11-14T09:34:33.929Z,98982.69
2022-11-14T09:37:00.279Z,98986.53
2022-11-14T09:39:26.735Z,98985.69
2022-11-14T09:42:15.825Z,98999.88
2022-11-14T09:44:49.522Z,98991.66
2022-11-14T09:47:21.589Z,99000.78
2022-11-14T09:49:50.683Z,98996.94
2022-11-14T09:52:39.969Z,98994.94
2022-11-14T09:55:36.852Z,99003.13
2022-11-14T09:58:04.363Z,99006.84
2022-11-14T10:01:20.509Z,99003.38
2022-11-14T10:03:59.361Z,98998.47
2022-11-14T10:06:58.381Z,99011.13
2022-11-14T10:09:46.274Z,98999.63
2022-11-14T10:12:43.570Z,99008.56
2022-11-14T10:15:39.399Z,99017.41
2022-11-14T10:18:36.787Z,99003.34
2022-11-14T10:21:26.762Z,98999.44
2022-11-14T10:24:09.729Z,98988.31
2022-11-14T10:26:55.008Z,99006.72
2022-11-14T10:29:24.216Z,99008.19
2022-11-14T10:32:09.458Z,99002.31
2022-11-14T10:34:47.995Z,99006.44
2022-11-14T10:37:23.473Z,99006.81
2022-11-14T10:40:08.719Z,98995.47
2022-11-14T10:42:38.653Z,99005.69
2022-11-14T10:45:28.631Z,98997.41
2022-11-14T10:48:00.062Z,98997.88
2022-11-14T10:50:56.035Z,98991.31
2022-11-14T10:53:27.089Z,98995.00
2022-11-14T10:56:04.038Z,98997.28
2022-11-14T10:58:42.015Z,98986.03
2022-11-14T11:01:32.985Z,98977.38
2022-11-14T11:04:12.064Z,98988.94
2022-11-14T11:06:38.728Z,98973.22
2022-11-14T11:09:31.677Z,98967.34
2022-11-14T11:12:01.659Z,98967.25
2022-11-14T11:14:29.575Z,98960.66
2022-11-14T11:17:11.472Z,98956.63
2022-11-14T11:19:39.471Z,98949.97
2022-11-14T11:22:23.193Z,98942.78
2022-11-14T11:24:49.601Z,98933.53
2022-11-14T11:27:19.033Z,98914.88
2022-11-14T11:29:46.590Z,98916.41
2022-11-14T11:32:26.078Z,98904.88
2022-11-14T11:34:52.627Z,98907.63
2022-11-14T11:37:24.315Z,98912.16
2022-11-14T11:40:01.055Z,98920.63
2022-11-14T11:43:31.839Z,98900.09
2022-11-14T11:45:33.607Z,98906.72
2022-11-14T11:48:14.117Z,98907.56
2022-11-14T11:50:41.419Z,98902.06
2022-11-14T11:53:31.848Z,98898.72
2022-11-14T11:56:10.202Z,98889.00
2022-11-14T11:58:52.052Z,98884.06
2022-11-14T12:01:19.784Z,98893.31
2022-11-14T12:03:55.450Z,98893.63
2022-11-14T12:06:27.502Z,98894.03
2022-11-14T12:09:03.425Z,98887.59
2022-11-14T12:11:34.117Z,98887.72
2022-11-14T12:14:06.564Z,98887.84
2022-11-14T12:16:51.735Z,98880.38
2022-11-14T12:19:24.137Z,98872.81
2022-11-14T12:22:05.759Z,98869.13
2022-11-14T12:25:00.141Z,98869.53
2022-11-14T12:27:49.958Z,98860.41
2022-11-14T12:30:21.892Z,98859.56
2022-11-14T12:32:54.852Z,98856.22
2022-11-14T12:35:29.698Z,98855.63
2022-11-14T12:37:58.432Z,98851.84
2022-11-14T12:40:37.571Z,98849.47
2022-11-14T12:43:24.518Z,98850.31
2022-11-14T12:45:50.830Z,98848.63
2022-11-14T12:48:31.382Z,98857.34
2022-11-14T12:50:59.728Z,98861.13
2022-11-14T12:53:37.820Z,98872.97
2022-11-14T12:56:30.715Z,98857.88
2022-11-14T12:59:12.501Z,98861.56
2022-11-14T13:01:42.434Z,98872.13
2022-11-14T13:04:42.795Z,98870.25
2022-11-14T13:07:32.938Z,98877.28
2022-11-14T13:10:03.812Z,98871.81
2022-11-14T13:12:51.694Z,98872.25
2022-11-14T13:15:54.619Z,98853.53
2022-11-14T13:18:45.529Z,98850.59
2022-11-14T13:21:45.392Z,98856.63
2022-11-14T13:24:17.777Z,98854.50
2022-11-14T13:26:48.656Z,98851.00
2022-11-14T13:29:40.045Z,98853.81
2022-11-14T13:32:11.733Z,98852.81
2022-11-14T13:34:51.951Z,98853.41
2022-11-14T13:37:56.980Z,98846.50
2022-11-14T13:40:51.554Z,98842.00
2022-11-14T13:43:30.226Z,98840.72
2022-11-14T13:46:13.577Z,98839.31
2022-11-14T13:49:01.687Z,98844.38
2022-11-14T13:51:43.017Z,98834.81
2022-11-14T13:54:17.568Z,98831.88
2022-11-14T13:57:03.035Z,98834.25
2022-11-14T13:59:48.004Z,98829.28
2022-11-14T14:02:40.295Z,98830.16
2022-11-14T14:05:31.188Z,98822.13
2022-11-14T14:10:56.853Z,98831.16
2022-11-14T14:13:51.112Z,98822.44
2022-11-14T14:16:39.299Z,98820.75
2022-11-14T14:19:25.530Z,98819.03
2022-11-14T14:22:10.025Z,98815.41
2022-11-14T14:24:48.426Z,98828.06
2022-11-14T14:27:28.062Z,98806.00
2022-11-14T14:30:12.813Z,98812.88
2022-11-14T14:32:39.326Z,98824.69
2022-11-14T14:35:27.236Z,98814.16
2022-11-14T14:37:55.656Z,98807.84
2022-11-14T14:40:26.250Z,98810.63
2022-11-14T14:42:53.674Z,98803.31
2022-11-14T14:45:22.540Z,98808.25
2022-11-14T14:47:51.651Z,98800.50
2022-11-14T14:50:24.105Z,98800.50
2022-11-14T14:52:58.809Z,98800.22
2022-11-14T14:55:32.507Z,98796.03
2022-11-14T14:58:27.596Z,98788.56
2022-11-14T15:01:07.159Z,98789.13
2022-11-14T15:03:38.169Z,98792.34
2022-11-14T15:06:29.668Z,98790.81
2022-11-14T15:08:59.615Z,98790.38
2022-11-14T15:11:31.389Z,98797.13
2022-11-14T15:14:00.442Z,98795.16
2022-11-14T15:16:29.153Z,98787.28
2022-11-14T15:18:57.209Z,98788.81
2022-11-14T15:21:29.412Z,98784.75
2022-11-14T15:24:23.460Z,98784.63
2022-11-14T15:26:51.187Z,98789.53
2022-11-14T15:29:21.080Z,98792.34
2022-11-14T15:31:57.662Z,98787.16
2022-11-14T15:34:30.023Z,98785.03
2022-11-14T15:37:16.090Z,98781.09
2022-11-14T15:39:43.611Z,98770.97
2022-11-14T15:42:26.337Z,98769.13
2022-11-14T15:44:52.697Z,98770.41
2022-11-14T15:47:20.979Z,98773.22
2022-11-14T15:50:06.645Z,98779.13
2022-11-14T15:53:01.185Z,98777.16
2022-11-14T15:55:28.181Z,98773.22
2022-11-14T15:58:20.995Z,98774.31
2022-11-14T16:00:50.165Z,98772.53
2022-11-14T16:03:19.452Z,98776.28
2022-11-14T16:05:48.559Z,98768.84
2022-11-14T16:08:14.913Z,98772.09
2022-11-14T16:10:41.246Z,98772.38
2022-11-14T16:13:07.643Z,98770.69
2022-11-14T16:15:34.046Z,98768.31
2022-11-14T16:18:00.377Z,98765.19
2022-11-14T16:20:29.602Z,98764.22
2022-11-14T16:22:56.624Z,98757.19
2022-11-14T16:25:28.620Z,98759.31
2022-11-14T16:27:55.314Z,98760.44
2022-11-14T16:30:23.836Z,98754.41
2022-11-14T16:32:51.762Z,98759.19
2022-11-14T16:35:23.657Z,98764.78
2022-11-14T16:37:50.934Z,98766.75
2022-11-14T16:40:27.691Z,98769.84
2022-11-14T16:42:56.279Z,98772.53
2022-11-14T16:45:25.085Z,98778.56
2022-11-14T16:47:51.574Z,98777.16
2022-11-14T16:50:19.122Z,98774.06
2022-11-14T16:52:45.604Z,98780.25
2022-11-14T16:55:12.522Z,98775.91
2022-11-14T16:57:40.182Z,98778.16
2022-11-14T17:00:09.453Z,98773.78
2022-11-14T17:02:35.924Z,98774.94
2022-11-14T17:05:02.393Z,98778.84
2022-11-14T17:07:32.655Z,98772.81
2022-11-14T17:10:02.907Z,98780.00
2022-11-14T17:12:29.326Z,98773.81
2022-11-14T17:14:55.790Z,98787.84
2022-11-14T17:17:22.174Z,98782.09
2022-11-14T17:19:48.832Z,98783.34
2022-11-14T17:22:17.318Z,98783.50
2022-11-14T17:24:44.305Z,98773.50
2022-11-14T17:27:12.792Z,98775.47
2022-11-14T17:29:39.365Z,98780.13
2022-11-14T17:32:05.736Z,98782.22
2022-11-14T17:34:32.506Z,98779.13
2022-11-14T17:36:58.878Z,98779.13
2022-11-14T17:39:26.099Z,98785.47
2022-11-14T17:41:52.513Z,98777.31
2022-11-14T17:44:18.865Z,98772.09
2022-11-14T17:46:46.827Z,98774.63
2022-11-14T17:49:13.210Z,98776.03
2022-11-14T17:51:39.563Z,98776.69
2022-11-14T17:54:05.990Z,98773.47
2022-11-14T17:56:32.320Z,98769.78
2022-11-14T17:58:58.827Z,98778.38
2022-11-14T18:01:25.352Z,98784.72
2022-11-14T18:03:51.806Z,98769.50
2022-11-14T18:06:20.563Z,98786.66
2022-11-14T18:08:47.726Z,98777.50
2022-11-14T18:11:16.922Z,98777.63
2022-11-14T18:13:43.657Z,98778.72
2022-11-14T18:16:13.578Z,98779.59
2022-11-14T18:18:40.912Z,98774.25
2022-11-14T18:21:25.725Z,98778.59
2022-11-14T18:23:54.243Z,98781.69
2022-11-14T18:26:26.895Z,98787.44
2022-11-14T18:29:02.018Z,98793.03
2022-11-14T18:31:28.811Z,98781.09
2022-11-14T18:33:56.474Z,98797.75
2022-11-14T18:36:23.662Z,98800.50
2022-11-14T18:38:50.400Z,98787.25
2022-11-14T18:41:19.495Z,98793.59
2022-11-14T18:43:46.012Z,98793.38
2022-11-14T18:48:42.432Z,98790.03
2022-11-14T18:51:17.434Z,98792.06
2022-11-14T18:53:44.284Z,98787.00
2022-11-14T18:56:14.342Z,98790.94
2022-11-14T18:58:42.784Z,98795.44
2022-11-14T19:01:13.734Z,98779.34
2022-11-14T19:03:40.646Z,98789.56
2022-11-14T19:06:09.187Z,98785.41
2022-11-14T19:08:35.774Z,98785.91
2022-11-14T19:11:07.464Z,98777.84
2022-11-14T19:13:34.465Z,98773.22
2022-11-14T19:16:05.309Z,98773.91
2022-11-14T19:18:32.355Z,98774.63
2022-11-14T19:21:00.787Z,98781.38
2022-11-14T19:23:28.335Z,98775.91
2022-11-14T19:26:00.603Z,98781.69
2022-11-14T19:28:29.462Z,98773.66
2022-11-14T19:31:03.425Z,98786.88
2022-11-14T19:33:31.084Z,98784.38
2022-11-14T19:35:58.506Z,98791.09
2022-11-14T19:38:25.131Z,98783.22
2022-11-14T19:40:51.515Z,98783.97
2022-11-14T19:43:18.426Z,98786.78
2022-11-14T19:45:44.882Z,98794.81
2022-11-14T19:48:11.571Z,98790.88
2022-11-14T19:50:38.199Z,98792.03
2022-11-14T19:53:05.056Z,98794.13
2022-11-14T19:55:32.116Z,98802.69
2022-11-14T19:57:59.192Z,98801.31
2022-11-14T20:00:29.232Z,98791.22
2022-11-14T20:02:55.651Z,98791.34
2022-11-14T20:05:22.267Z,98785.03
2022-11-14T20:07:48.705Z,98787.28
2022-11-14T20:10:16.332Z,98787.00
2022-11-14T20:12:42.785Z,98792.31
2022-11-14T20:15:09.877Z,98799.38
2022-11-14T20:17:36.286Z,98802.19
2022-11-14T20:20:02.889Z,98802.06
2022-11-14T20:22:29.282Z,98799.94
2022-11-14T20:24:55.835Z,98807.69
2022-11-14T20:27:22.236Z,98801.22
2022-11-14T20:29:48.734Z,98807.69
2022-11-14T20:32:15.984Z,98800.53
2022-11-14T20:34:42.673Z,98803.63
2022-11-14T20:37:11.649Z,98805.56
2022-11-14T20:39:38.663Z,98802.06
2022-11-14T20:42:05.168Z,98802.06
2022-11-14T20:44:31.645Z,98805.28
2022-11-14T20:46:58.246Z,98811.75
2022-11-14T20:49:24.681Z,98803.31
2022-11-14T20:51:51.311Z,98804.72
2022-11-14T20:54:17.691Z,98801.22
2022-11-14T20:56:45.316Z,98789.38
2022-11-14T20:59:11.736Z,98807.53
2022-11-14T21:01:43.419Z,98797.53
2022-11-14T21:04:10.573Z,98791.47
2022-11-14T21:06:37.142Z,98795.41
2022-11-14T21:09:03.711Z,98790.75
2022-11-14T21:11:31.200Z,98788.34
2022-11-14T21:13:58.513Z,98790.34
2022-11-14T21:16:39.433Z,98795.56
2022-11-14T21:19:07.511Z,98798.50
2022-11-14T21:21:35.735Z,98800.56
2022-11-14T21:24:02.208Z,98797.31
2022-11-14T21:26:31.632Z,98794.19
2022-11-14T21:29:00.851Z,98788.94
2022-11-14T21:31:34.865Z,98783.72
2022-11-14T21:34:03.974Z,98788.38
2022-11-14T21:36:44.233Z,98787.91
2022-11-14T21:39:14.684Z,98787.63
2022-11-14T21:41:42.629Z,98787.72
2022-11-14T21:44:13.078Z,98779.13
2022-11-14T21:46:40.340Z,98788.00
2022-11-14T21:49:06.773Z,98783.38
2022-11-14T21:51:33.340Z,98777.53
2022-11-14T21:53:59.874Z,98780.22
2022-11-14T21:56:28.976Z,98776.56
2022-11-14T21:59:15.884Z,98775.94
2022-11-14T22:02:04.293Z,98784.91
2022-11-14T22:04:31.895Z,98785.00
2022-11-14T22:06:59.861Z,98782.06
2022-11-14T22:09:28.047Z,98771.59
2022-11-14T22:11:56.193Z,98782.84
2022-11-14T22:14:23.016Z,98778.03
2022-11-14T22:16:49.657Z,98770.28
2022-11-14T22:19:16.198Z,98779.19
2022-11-14T22:21:42.790Z,98775.88
2022-11-14T22:24:09.177Z,98773.75
2022-11-14T22:26:39.690Z,98781.41
2022-11-14T22:29:07.192Z,98778.41
2022-11-14T22:31:34.145Z,98774.91
2022-11-14T22:34:00.630Z,98778.59
2022-11-14T22:36:27.975Z,98777.19
2022-11-14T22:38:55.584Z,98786.63
2022-11-14T22:41:30.481Z,98785.63
2022-11-14T22:43:59.189Z,98788.00
2022-11-14T22:46:27.060Z,98782.41
2022-11-14T22:48:53.547Z,98790.69
2022-11-14T22:51:24.170Z,98791.38
2022-11-14T22:53:52.620Z,98796.44
2022-11-14T22:56:21.301Z,98791.28
2022-11-14T22:58:48.537Z,98794.44
2022-11-14T23:01:20.443Z,98798.72
2022-11-14T23:03:50.792Z,98808.13
2022-11-14T23:06:18.846Z,98799.16
2022-11-14T23:08:45.615Z,98808.09
2022-11-14T23:11:19.197Z,98808.03
2022-11-14T23:13:47.892Z,98807.88
2022-11-14T23:16:20.314Z,98814.63
2022-11-14T23:18:47.649Z,98807.44
2022-11-14T23:21:20.003Z,98794.13
2022-11-14T23:23:46.768Z,98794.72
2022-11-14T23:26:15.835Z,98791.06
2022-11-14T23:28:42.860Z,98788.53
2022-11-14T23:31:10.518Z,98782.19
2022-11-14T23:33:36.983Z,98783.41
2022-11-14T23:36:04.153Z,98783.03
2022-11-14T23:38:30.980Z,98786.16
2022-11-14T23:40:59.472Z,98787.44
2022-11-14T23:43:26.631Z,98793.81
2022-11-14T23:45:53.353Z,98797.72
2022-11-14T23:48:21.064Z,98798.41
2022-11-14T23:50:55.650Z,98792.75
2022-11-14T23:53:22.503Z,98796.78
2022-11-14T23:56:00.175Z,98790.50
2022-11-14T23:58:27.971Z,98786.66
